createdAt,value
2023-02-18T00:00:55.095Z,73.30
2023-02-18T00:03:59.918Z,73.50
2023-02-18T00:07:03.526Z,73.50
2023-02-18T00:10:09.718Z,73.80
2023-02-18T00:13:11.906Z,73.80
2023-02-18T00:16:17.255Z,73.70
2023-02-18T00:19:22.319Z,74.00
2023-02-18T00:22:24.778Z,73.60
2023-02-18T00:25:29.110Z,73.80
2023-02-18T00:28:31.848Z,73.60
2023-02-18T00:31:36.957Z,73.20
2023-02-18T00:34:38.872Z,73.50
2023-02-18T00:37:40.988Z,73.10
2023-02-18T00:40:44.128Z,73.10
2023-02-18T00:43:46.377Z,73.20
2023-02-18T00:46:49.883Z,73.20
2023-02-18T00:49:52.158Z,73.40
2023-02-18T00:52:54.340Z,73.30
2023-02-18T00:55:56.671Z,73.10
2023-02-18T00:58:58.949Z,72.80
2023-02-18T01:02:01.178Z,72.90
2023-02-18T01:05:03.549Z,73.00
2023-02-18T01:08:06.876Z,73.60
2023-02-18T01:11:11.739Z,73.00
2023-02-18T01:14:13.767Z,73.40
2023-02-18T01:17:16.093Z,73.10
2023-02-18T01:20:19.761Z,72.80
2023-02-18T01:23:23.243Z,72.70
2023-02-18T01:26:25.600Z,72.40
2023-02-18T01:29:28.235Z,72.10
2023-02-18T01:32:30.669Z,72.30
2023-02-18T01:35:33.167Z,71.90
2023-02-18T01:38:35.903Z,71.80
2023-02-18T01:41:37.919Z,71.90
2023-02-18T01:44:41.822Z,71.80
2023-02-18T01:47:43.829Z,71.80
2023-02-18T01:50:54.376Z,71.80
2023-02-18T01:54:22.582Z,71.70
2023-02-18T01:57:29.896Z,71.90
2023-02-18T02:00:32.950Z,71.90
2023-02-18T02:03:35.530Z,72.20
2023-02-18T02:06:37.606Z,72.40
2023-02-18T02:09:41.498Z,72.80
2023-02-18T02:12:49.573Z,73.20
2023-02-18T02:16:06.748Z,73.60
2023-02-18T02:19:18.454Z,73.70
2023-02-18T02:22:42.368Z,73.80
2023-02-18T02:25:53.414Z,74.00
2023-02-18T02:29:14.062Z,74.20
2023-02-18T02:32:52.465Z,74.90
2023-02-18T02:36:09.474Z,75.50
2023-02-18T02:39:38.302Z,76.40
2023-02-18T02:42:40.992Z,77.40
2023-02-18T02:46:11.634Z,78.80
2023-02-18T02:49:38.851Z,78.80
2023-02-18T02:52:54.318Z,79.40
2023-02-18T02:55:56.492Z,80.50
2023-02-18T02:59:02.194Z,81.30
2023-02-18T03:02:52.332Z,82.00
2023-02-18T03:05:57.343Z,82.90
2023-02-18T03:09:11.260Z,83.70
2023-02-18T03:12:47.362Z,84.30
2023-02-18T03:15:56.069Z,85.00
2023-02-18T03:19:20.779Z,85.10
2023-02-18T03:22:29.179Z,86.00
2023-02-18T03:25:33.861Z,86.00
2023-02-18T03:28:38.559Z,86.70
2023-02-18T03:31:43.346Z,87.60
2023-02-18T03:34:51.878Z,85.70
2023-02-18T03:38:09.265Z,86.20
2023-02-18T03:41:12.692Z,86.60
2023-02-18T03:44:17.722Z,86.60
2023-02-18T03:47:22.689Z,86.50
2023-02-18T03:50:26.185Z,86.50
2023-02-18T03:53:28.524Z,86.70
2023-02-18T03:56:31.626Z,86.50
2023-02-18T03:59:34.027Z,86.70
2023-02-18T04:02:37.443Z,85.60
2023-02-18T04:05:39.623Z,86.50
2023-02-18T04:08:42.706Z,86.30
2023-02-18T04:11:45.526Z,85.70
2023-02-18T04:14:47.702Z,85.10
2023-02-18T04:17:50.348Z,84.70
2023-02-18T04:20:52.527Z,83.90
2023-02-18T04:23:54.871Z,83.50
2023-02-18T04:26:58.530Z,82.40
2023-02-18T04:30:00.727Z,82.20
2023-02-18T04:33:04.012Z,82.10
2023-02-18T04:36:08.232Z,80.70
2023-02-18T04:39:10.529Z,80.30
2023-02-18T04:42:13.554Z,80.30
2023-02-18T04:45:21.939Z,80.40
2023-02-18T04:48:32.022Z,80.70
2023-02-18T04:51:36.426Z,79.80
2023-02-18T04:54:38.605Z,80.50
2023-02-18T04:57:40.953Z,79.80
2023-02-18T05:00:43.395Z,79.40
2023-02-18T05:03:46.315Z,79.80
2023-02-18T05:06:48.642Z,79.20
2023-02-18T05:09:50.880Z,78.90
2023-02-18T05:12:53.341Z,79.20
2023-02-18T05:16:09.900Z,79.10
2023-02-18T05:19:16.122Z,79.20
2023-02-18T05:22:18.474Z,79.40
2023-02-18T05:25:20.518Z,79.50
2023-02-18T05:28:25.311Z,79.80
2023-02-18T05:31:27.424Z,80.10
2023-02-18T05:34:29.631Z,80.10
2023-02-18T05:37:31.892Z,80.00
2023-02-18T05:40:37.932Z,80.10
2023-02-18T05:44:10.880Z,80.50
2023-02-18T05:47:13.778Z,80.70
2023-02-18T05:50:16.207Z,81.20
2023-02-18T05:53:18.269Z,81.40
2023-02-18T05:56:20.684Z,81.90
2023-02-18T05:59:23.387Z,82.10
2023-02-18T06:02:25.733Z,82.50
2023-02-18T06:05:28.086Z,82.30
2023-02-18T06:08:32.861Z,82.30
2023-02-18T06:11:36.074Z,82.20
2023-02-18T06:14:42.237Z,82.40
2023-02-18T06:17:47.989Z,82.60
2023-02-18T06:20:50.258Z,82.50
2023-02-18T06:23:52.555Z,82.30
2023-02-18T06:26:54.788Z,82.60
2023-02-18T06:29:59.159Z,82.80
2023-02-18T06:33:04.995Z,82.90
2023-02-18T06:36:11.870Z,82.80
2023-02-18T06:39:14.367Z,82.60
2023-02-18T06:42:17.643Z,82.80
2023-02-18T06:45:20.037Z,82.80
2023-02-18T06:48:22.232Z,82.80
2023-02-18T06:51:24.842Z,82.60
2023-02-18T06:54:27.071Z,82.20
2023-02-18T06:57:29.466Z,82.00
2023-02-18T07:00:31.757Z,81.90
2023-02-18T07:03:34.886Z,82.00
2023-02-18T07:06:37.416Z,82.00
2023-02-18T07:09:39.714Z,82.30
2023-02-18T07:12:43.742Z,82.30
2023-02-18T07:15:45.802Z,82.20
2023-02-18T07:18:49.361Z,82.40
2023-02-18T07:21:51.710Z,82.70
2023-02-18T07:24:54.531Z,83.00
2023-02-18T07:27:56.709Z,82.90
2023-02-18T07:30:59.552Z,83.00
2023-02-18T07:34:02.124Z,83.10
2023-02-18T07:37:09.322Z,83.40
2023-02-18T07:40:15.277Z,83.70
2023-02-18T07:43:17.747Z,83.40
2023-02-18T07:46:19.913Z,83.60
2023-02-18T07:49:21.919Z,83.40
2023-02-18T07:52:24.246Z,83.30
2023-02-18T07:55:46.240Z,83.30
2023-02-18T07:58:48.369Z,83.50
2023-02-18T08:01:50.653Z,83.70
2023-02-18T08:04:52.739Z,83.70
2023-02-18T08:07:55.065Z,83.90
2023-02-18T08:11:13.325Z,83.70
2023-02-18T08:14:20.513Z,83.70
2023-02-18T08:17:24.408Z,83.80
2023-02-18T08:20:27.313Z,83.70
2023-02-18T08:23:31.216Z,83.70
2023-02-18T08:26:34.758Z,83.80
2023-02-18T08:29:36.739Z,83.40
2023-02-18T08:32:39.238Z,83.30
2023-02-18T08:35:42.093Z,82.90
2023-02-18T08:38:44.425Z,83.30
2023-02-18T08:41:46.844Z,82.90
2023-02-18T08:44:48.890Z,82.70
2023-02-18T08:48:19.404Z,82.40
2023-02-18T08:51:20.687Z,82.00
2023-02-18T08:54:22.788Z,82.20
2023-02-18T08:57:25.102Z,81.90
2023-02-18T09:00:27.400Z,80.90
2023-02-18T09:03:29.529Z,81.00
2023-02-18T09:06:31.807Z,81.10
2023-02-18T09:09:34.066Z,80.80
2023-02-18T09:12:36.458Z,81.00
2023-02-18T09:15:38.816Z,81.10
2023-02-18T09:18:41.821Z,80.20
2023-02-18T09:21:44.532Z,80.00
2023-02-18T09:24:46.944Z,79.30
2023-02-18T09:27:49.512Z,78.90
2023-02-18T09:30:54.797Z,77.90
2023-02-18T09:34:00.121Z,76.80
2023-02-18T09:37:02.825Z,76.30
2023-02-18T09:40:06.842Z,75.20
2023-02-18T09:43:41.732Z,75.30
2023-02-18T09:46:54.052Z,74.40
2023-02-18T09:50:00.606Z,73.70
2023-02-18T09:53:04.374Z,73.10
2023-02-18T09:56:07.510Z,73.90
2023-02-18T09:59:19.363Z,71.90
2023-02-18T10:02:21.912Z,70.60
2023-02-18T10:05:26.329Z,69.50
2023-02-18T10:08:35.548Z,69.30
2023-02-18T10:11:46.398Z,68.10
2023-02-18T10:14:57.724Z,68.50
2023-02-18T10:18:02.067Z,65.90
2023-02-18T10:21:14.182Z,66.00
2023-02-18T10:24:25.247Z,65.00
2023-02-18T10:27:34.087Z,64.20
2023-02-18T10:30:39.422Z,62.60
2023-02-18T10:33:59.192Z,64.20
2023-02-18T10:37:28.646Z,63.40
2023-02-18T10:40:33.601Z,65.90
2023-02-18T10:44:33.289Z,67.40
2023-02-18T10:47:40.333Z,68.20
2023-02-18T10:50:45.171Z,66.20
2023-02-18T10:53:51.058Z,67.10
2023-02-18T10:56:58.440Z,67.50
2023-02-18T11:00:16.771Z,67.70
2023-02-18T11:03:26.109Z,66.50
2023-02-18T11:06:33.884Z,66.60
2023-02-18T11:09:54.909Z,64.60
2023-02-18T11:13:01.113Z,62.80
2023-02-18T11:16:06.668Z,61.50
2023-02-18T11:19:39.928Z,61.50
2023-02-18T11:22:43.840Z,61.80
2023-02-18T11:26:04.478Z,61.10
2023-02-18T11:29:29.265Z,61.10
2023-02-18T11:32:35.451Z,62.00
2023-02-18T11:35:38.406Z,63.60
2023-02-18T11:38:48.802Z,62.10
2023-02-18T11:42:01.914Z,62.00
2023-02-18T11:45:05.703Z,60.80
2023-02-18T11:48:16.506Z,61.20
2023-02-18T11:51:36.811Z,62.60
2023-02-18T11:54:39.233Z,62.10
2023-02-18T11:57:45.704Z,61.10
2023-02-18T12:00:51.795Z,61.60
2023-02-18T12:04:01.286Z,62.20
2023-02-18T12:07:42.507Z,63.10
2023-02-18T12:10:53.626Z,66.80
2023-02-18T12:13:57.839Z,66.80
2023-02-18T12:17:25.176Z,67.50
2023-02-18T12:20:47.757Z,69.30
2023-02-18T12:24:14.626Z,69.80
2023-02-18T12:27:42.324Z,70.40
2023-02-18T12:31:25.172Z,71.90
2023-02-18T12:35:05.920Z,71.80
2023-02-18T12:38:35.283Z,72.50
2023-02-18T12:41:49.397Z,72.80
2023-02-18T12:45:13.371Z,72.70
2023-02-18T12:48:53.217Z,73.80
2023-02-18T12:52:10.162Z,75.00
2023-02-18T12:55:34.319Z,75.50
2023-02-18T12:58:45.691Z,75.90
2023-02-18T13:02:08.994Z,75.60
2023-02-18T13:05:29.961Z,75.00
2023-02-18T13:08:56.492Z,75.40
2023-02-18T13:12:06.998Z,76.50
2023-02-18T13:15:16.822Z,76.30
2023-02-18T13:18:36.093Z,77.00
2023-02-18T13:21:39.573Z,76.50
2023-02-18T13:24:45.665Z,77.20
2023-02-18T13:27:56.771Z,75.70
2023-02-18T13:31:05.587Z,76.60
2023-02-18T13:34:37.730Z,76.40
2023-02-18T13:38:03.052Z,74.90
2023-02-18T13:41:06.113Z,75.40
2023-02-18T13:44:29.581Z,75.10
2023-02-18T13:47:46.670Z,75.00
2023-02-18T13:50:49.269Z,75.40
2023-02-18T13:53:52.774Z,76.20
2023-02-18T13:57:03.193Z,76.60
2023-02-18T14:00:15.307Z,77.00
2023-02-18T14:03:22.198Z,77.20
2023-02-18T14:06:28.178Z,78.10
2023-02-18T14:09:40.041Z,78.20
2023-02-18T14:12:51.994Z,78.10
2023-02-18T14:15:57.546Z,78.50
2023-02-18T14:19:01.666Z,78.40
2023-02-18T14:22:31.691Z,78.90
2023-02-18T14:25:39.081Z,77.90
2023-02-18T14:28:45.493Z,78.30
2023-02-18T14:31:54.663Z,77.60
2023-02-18T14:35:17.917Z,77.50
2023-02-18T14:38:50.744Z,77.40
2023-02-18T14:42:15.927Z,77.90
2023-02-18T14:45:39.618Z,78.10
2023-02-18T14:49:19.146Z,78.50
2023-02-18T14:52:34.495Z,78.70
2023-02-18T14:55:40.986Z,78.40
2023-02-18T14:58:47.364Z,78.30
2023-02-18T15:01:54.550Z,78.50
2023-02-18T15:05:12.477Z,78.10
2023-02-18T15:08:20.081Z,78.30
2023-02-18T15:11:26.374Z,78.20
2023-02-18T15:14:32.286Z,79.00
2023-02-18T15:17:34.749Z,79.50
2023-02-18T15:20:39.150Z,78.70
2023-02-18T15:23:41.838Z,78.90
2023-02-18T15:26:47.013Z,78.40
2023-02-18T15:29:52.396Z,78.60
2023-02-18T15:32:57.164Z,78.10
2023-02-18T15:36:11.428Z,78.10
2023-02-18T15:39:13.794Z,78.00
2023-02-18T15:42:34.737Z,77.60
2023-02-18T15:45:44.127Z,77.80
2023-02-18T15:48:48.974Z,77.20
2023-02-18T15:51:57.775Z,77.60
2023-02-18T15:55:08.216Z,78.20
2023-02-18T15:58:31.599Z,77.30
2023-02-18T16:01:36.039Z,77.30
2023-02-18T16:04:41.750Z,77.30
2023-02-18T16:07:59.090Z,77.10
2023-02-18T16:11:07.454Z,77.10
2023-02-18T16:14:49.201Z,77.20
2023-02-18T16:17:51.426Z,77.00
2023-02-18T16:21:01.543Z,76.50
2023-02-18T16:24:21.894Z,76.70
2023-02-18T16:27:33.802Z,77.30
2023-02-18T16:30:36.091Z,77.80
2023-02-18T16:33:40.259Z,78.30
2023-02-18T16:37:03.763Z,78.60
2023-02-18T16:40:28.421Z,78.90
2023-02-18T16:43:32.885Z,79.20
2023-02-18T16:46:35.454Z,79.30
2023-02-18T16:49:47.551Z,79.20
2023-02-18T16:52:50.542Z,79.70
2023-02-18T16:55:53.565Z,79.90
2023-02-18T16:58:55.756Z,80.00
2023-02-18T17:01:57.960Z,79.90
2023-02-18T17:05:00.049Z,80.10
2023-02-18T17:08:26.657Z,80.30
2023-02-18T17:11:36.057Z,80.50
2023-02-18T17:14:38.347Z,80.50
2023-02-18T17:17:40.426Z,80.60
2023-02-18T17:20:42.672Z,80.70
2023-02-18T17:23:45.026Z,80.70
2023-02-18T17:26:47.280Z,80.50
2023-02-18T17:29:49.415Z,81.80
2023-02-18T17:32:51.549Z,82.50
2023-02-18T17:35:53.970Z,82.30
2023-02-18T17:38:57.734Z,81.70
2023-02-18T17:41:59.803Z,82.20
2023-02-18T17:45:04.138Z,81.70
2023-02-18T17:48:06.521Z,82.10
2023-02-18T17:51:18.352Z,81.80
2023-02-18T17:54:23.061Z,82.10
2023-02-18T17:57:26.023Z,82.30
2023-02-18T18:00:42.207Z,82.50
2023-02-18T18:03:44.673Z,82.30
2023-02-18T18:06:50.012Z,82.50
2023-02-18T18:09:52.116Z,82.60
2023-02-18T18:12:54.503Z,83.10
2023-02-18T18:15:57.981Z,83.00
2023-02-18T18:19:00.392Z,83.10
2023-02-18T18:22:02.570Z,83.10
2023-02-18T18:25:18.248Z,83.50
2023-02-18T18:28:20.900Z,83.50
2023-02-18T18:31:23.034Z,83.60
2023-02-18T18:34:25.170Z,83.60
2023-02-18T18:37:27.142Z,83.80
2023-02-18T18:40:32.980Z,84.00
2023-02-18T18:43:35.797Z,83.90
2023-02-18T18:46:38.248Z,84.20
2023-02-18T18:49:40.556Z,84.30
2023-02-18T18:52:43.825Z,84.60
2023-02-18T18:55:46.609Z,84.70
2023-02-18T18:58:50.063Z,85.00
2023-02-18T19:01:52.626Z,84.80
2023-02-18T19:04:55.783Z,84.80
2023-02-18T19:07:58.910Z,85.30
2023-02-18T19:11:02.614Z,85.40
2023-02-18T19:14:11.126Z,85.50
2023-02-18T19:17:13.268Z,85.60
2023-02-18T19:20:18.440Z,85.80
2023-02-18T19:23:20.407Z,86.00
2023-02-18T19:26:23.399Z,86.00
2023-02-18T19:29:25.767Z,86.20
2023-02-18T19:32:27.848Z,86.30
2023-02-18T19:35:31.072Z,86.50
2023-02-18T19:38:33.144Z,86.50
2023-02-18T19:41:35.265Z,86.50
2023-02-18T19:44:37.318Z,86.40
2023-02-18T19:47:39.491Z,86.10
2023-02-18T19:50:43.271Z,86.40
2023-02-18T19:53:46.292Z,86.60
2023-02-18T19:56:48.399Z,86.40
2023-02-18T19:59:50.588Z,86.80
2023-02-18T20:02:52.803Z,86.90
2023-02-18T20:05:55.141Z,86.80
2023-02-18T20:08:57.374Z,86.70
2023-02-18T20:11:59.710Z,86.40
2023-02-18T20:15:02.679Z,86.20
2023-02-18T20:18:04.818Z,86.30
2023-02-18T20:21:09.722Z,86.10
2023-02-18T20:24:12.023Z,86.10
2023-02-18T20:27:14.159Z,85.60
2023-02-18T20:30:16.325Z,85.20
2023-02-18T20:33:18.412Z,85.10
2023-02-18T20:36:20.590Z,85.00
2023-02-18T20:39:23.340Z,84.70
2023-02-18T20:42:25.608Z,84.60
2023-02-18T20:45:27.863Z,84.50
2023-02-18T20:48:31.314Z,84.40
2023-02-18T20:51:34.443Z,84.30
2023-02-18T20:54:37.034Z,84.30
2023-02-18T20:57:39.154Z,84.00
2023-02-18T21:00:41.611Z,84.00
2023-02-18T21:03:47.341Z,84.00
2023-02-18T21:06:50.605Z,83.90
2023-02-18T21:09:52.742Z,83.80
2023-02-18T21:12:54.740Z,83.70
2023-02-18T21:15:57.075Z,83.80
2023-02-18T21:18:59.636Z,84.00
2023-02-18T21:22:01.728Z,83.80
2023-02-18T21:25:04.069Z,83.90
2023-02-18T21:28:07.558Z,83.70
2023-02-18T21:31:37.539Z,83.50
2023-02-18T21:34:40.137Z,83.40
2023-02-18T21:37:44.370Z,83.30
2023-02-18T21:40:47.009Z,83.20
2023-02-18T21:43:49.537Z,83.20
2023-02-18T21:46:51.800Z,83.00
2023-02-18T21:49:54.037Z,83.00
2023-02-18T21:52:59.253Z,82.90
2023-02-18T21:56:10.654Z,82.60
2023-02-18T21:59:13.145Z,82.30
2023-02-18T22:02:19.223Z,82.40
2023-02-18T22:05:25.799Z,81.50
2023-02-18T22:08:29.141Z,81.50
2023-02-18T22:11:32.174Z,81.20
2023-02-18T22:14:34.453Z,80.80
2023-02-18T22:17:37.259Z,81.00
2023-02-18T22:20:39.653Z,80.90
2023-02-18T22:23:41.953Z,80.90
2023-02-18T22:26:45.189Z,80.60
2023-02-18T22:29:47.519Z,80.30
2023-02-18T22:32:49.890Z,80.10
2023-02-18T22:35:51.999Z,80.10
2023-02-18T22:38:54.762Z,79.70
2023-02-18T22:41:57.053Z,79.90
2023-02-18T22:45:03.029Z,79.90
2023-02-18T22:48:05.528Z,79.80
2023-02-18T22:51:17.071Z,79.50
2023-02-18T22:54:20.146Z,79.60
2023-02-18T22:57:22.340Z,79.50
2023-02-18T23:00:25.540Z,79.50
2023-02-18T23:03:28.877Z,79.40
2023-02-18T23:06:31.495Z,79.40
2023-02-18T23:09:40.081Z,79.60
2023-02-18T23:12:42.437Z,79.50
2023-02-18T23:15:45.023Z,79.60
2023-02-18T23:18:47.325Z,79.50
2023-02-18T23:21:49.747Z,79.40
2023-02-18T23:24:51.963Z,79.60
2023-02-18T23:27:54.419Z,79.30
2023-02-18T23:30:56.786Z,79.30
2023-02-18T23:34:01.823Z,79.30
2023-02-18T23:37:04.561Z,79.30
2023-02-18T23:40:08.754Z,79.30
2023-02-18T23:43:13.485Z,79.20
2023-02-18T23:46:17.757Z,79.00
2023-02-18T23:49:23.458Z,79.20
2023-02-18T23:52:25.960Z,79.50
2023-02-18T23:55:28.486Z,79.50
2023-02-18T23:58:30.755Z,79.50
